createdAt,value
2023-04-30T00:00:09.011Z,9.87
2023-04-30T00:05:32.489Z,10.30
2023-04-30T00:10:35.745Z,9.67
2023-04-30T00:15:39.069Z,9.87
2023-04-30T00:20:42.169Z,9.30
2023-04-30T00:25:45.579Z,10.17
2023-04-30T00:30:49.017Z,10.30
2023-04-30T00:35:52.323Z,10.30
2023-04-30T00:40:55.626Z,10.33
2023-04-30T00:46:04.239Z,10.37
2023-04-30T00:51:07.707Z,10.30
2023-04-30T00:56:13.258Z,9.17
2023-04-30T01:01:16.705Z,10.03
2023-04-30T01:06:20.191Z,10.37
2023-04-30T01:11:35.073Z,10.50
2023-04-30T01:16:53.564Z,9.30
2023-04-30T01:22:02.011Z,10.33
2023-04-30T01:27:20.385Z,10.67
2023-04-30T01:32:23.787Z,9.40
2023-04-30T01:37:45.532Z,9.93
2023-04-30T01:43:12.884Z,9.27
2023-04-30T01:48:34.608Z,10.43
2023-04-30T01:53:44.394Z,9.40
2023-04-30T01:58:50.437Z,9.47
2023-04-30T02:03:53.762Z,10.00
2023-04-30T02:09:02.995Z,9.93
2023-04-30T02:14:06.573Z,9.27
2023-04-30T02:19:10.081Z,8.43
2023-04-30T02:24:13.234Z,9.83
2023-04-30T02:29:17.735Z,8.90
2023-04-30T02:34:21.337Z,9.47
2023-04-30T02:39:24.620Z,9.90
2023-04-30T02:44:27.863Z,8.20
2023-04-30T02:49:31.109Z,9.93
2023-04-30T02:54:34.947Z,9.00
2023-04-30T02:59:39.194Z,8.30
2023-04-30T03:04:42.602Z,9.03
2023-04-30T03:09:46.941Z,8.93
2023-04-30T03:14:50.191Z,9.57
2023-04-30T03:19:53.801Z,8.90
2023-04-30T03:24:57.412Z,8.97
2023-04-30T03:30:00.723Z,7.97
2023-04-30T03:35:04.559Z,8.17
2023-04-30T03:40:08.953Z,7.27
2023-04-30T03:45:12.197Z,8.07
2023-04-30T03:50:15.734Z,8.57
2023-04-30T03:55:19.095Z,7.20
2023-04-30T04:00:22.324Z,7.87
2023-04-30T04:05:26.199Z,7.23
2023-04-30T04:10:29.738Z,8.10
2023-04-30T04:15:33.713Z,7.53
2023-04-30T04:20:36.884Z,8.33
2023-04-30T04:25:40.161Z,8.00
2023-04-30T04:30:43.653Z,8.37
2023-04-30T04:35:46.856Z,8.23
2023-04-30T04:40:54.673Z,8.27
2023-04-30T04:45:57.977Z,8.67
2023-04-30T04:51:01.633Z,8.63
2023-04-30T04:56:05.416Z,9.40
2023-04-30T05:01:09.593Z,8.17
2023-04-30T05:06:12.902Z,9.03
2023-04-30T05:11:17.097Z,8.57
2023-04-30T05:16:20.796Z,6.90
2023-04-30T05:21:24.106Z,6.77
2023-04-30T05:26:27.565Z,6.20
2023-04-30T05:31:32.785Z,6.23
2023-04-30T05:36:36.014Z,5.87
2023-04-30T05:41:39.287Z,6.63
2023-04-30T05:46:42.933Z,5.27
2023-04-30T05:51:46.495Z,4.53
2023-04-30T05:56:49.799Z,4.50
2023-04-30T06:01:53.369Z,4.03
2023-04-30T06:06:56.688Z,4.07
2023-04-30T06:12:00.051Z,4.83
2023-04-30T06:17:03.787Z,3.40
2023-04-30T06:22:16.181Z,3.30
2023-04-30T06:27:22.718Z,3.73
2023-04-30T06:32:26.427Z,3.07
2023-04-30T06:37:31.465Z,2.60
2023-04-30T06:42:39.617Z,2.67
2023-04-30T06:47:43.388Z,2.90
2023-04-30T06:52:46.644Z,2.23
2023-04-30T06:57:49.876Z,1.90
2023-04-30T07:02:53.556Z,2.07
2023-04-30T07:07:58.171Z,2.03
2023-04-30T07:13:03.453Z,2.00
2023-04-30T07:18:09.457Z,2.33
2023-04-30T07:23:13.240Z,2.20
2023-04-30T07:28:17.350Z,2.20
2023-04-30T07:33:20.973Z,2.03
2023-04-30T07:38:24.299Z,2.03
2023-04-30T07:43:27.429Z,1.63
2023-04-30T07:48:31.230Z,1.50
2023-04-30T07:53:34.801Z,1.73
2023-04-30T07:58:37.996Z,1.73
2023-04-30T08:03:41.296Z,1.30
2023-04-30T08:08:44.517Z,2.03
2023-04-30T08:13:48.306Z,1.50
2023-04-30T08:18:58.820Z,1.70
2023-04-30T08:24:02.785Z,1.20
2023-04-30T08:29:06.109Z,1.10
2023-04-30T08:34:09.373Z,1.20
2023-04-30T08:39:13.577Z,1.47
2023-04-30T08:44:23.957Z,1.50
2023-04-30T08:49:28.668Z,1.10
2023-04-30T08:54:33.185Z,1.33
2023-04-30T08:59:36.778Z,1.20
2023-04-30T09:04:39.924Z,1.60
2023-04-30T09:09:43.359Z,1.20
2023-04-30T09:15:19.215Z,1.43
2023-04-30T09:20:24.463Z,1.83
2023-04-30T09:25:40.228Z,1.30
2023-04-30T09:30:43.873Z,1.60
2023-04-30T09:35:47.311Z,1.70
2023-04-30T09:40:50.790Z,1.30
2023-04-30T09:45:54.184Z,1.30
2023-04-30T09:50:57.536Z,1.23
2023-04-30T09:56:07.580Z,1.13
2023-04-30T10:01:14.103Z,1.73
2023-04-30T10:06:19.849Z,1.70
2023-04-30T10:11:28.472Z,1.03
2023-04-30T10:16:41.323Z,1.30
2023-04-30T10:21:47.290Z,1.20
2023-04-30T10:26:50.917Z,1.23
2023-04-30T10:32:04.857Z,1.40
2023-04-30T10:37:25.126Z,1.20
2023-04-30T10:42:28.976Z,1.60
2023-04-30T10:47:32.763Z,1.60
2023-04-30T10:52:43.292Z,1.73
2023-04-30T10:57:48.785Z,1.63
2023-04-30T11:02:58.491Z,1.57
2023-04-30T11:08:04.918Z,1.40
2023-04-30T11:13:10.655Z,1.20
2023-04-30T11:18:15.030Z,1.70
2023-04-30T11:23:38.230Z,1.37
2023-04-30T11:28:55.322Z,1.37
2023-04-30T11:34:01.048Z,1.30
2023-04-30T11:39:08.349Z,1.77
2023-04-30T11:44:27.860Z,1.30
2023-04-30T11:49:33.111Z,1.30
2023-04-30T11:54:40.403Z,1.30
2023-04-30T11:59:44.107Z,1.60
2023-04-30T12:04:51.670Z,2.30
2023-04-30T12:10:01.839Z,2.07
2023-04-30T12:15:21.036Z,1.70
2023-04-30T12:20:29.698Z,1.57
2023-04-30T12:25:41.457Z,1.37
2023-04-30T12:30:47.821Z,1.17
2023-04-30T12:35:54.472Z,1.53
2023-04-30T12:41:00.684Z,1.30
2023-04-30T12:46:04.860Z,1.60
2023-04-30T12:51:12.997Z,1.50
2023-04-30T12:56:20.196Z,1.40
2023-04-30T13:01:25.893Z,1.40
2023-04-30T13:06:33.549Z,1.60
2023-04-30T13:11:38.152Z,1.73
2023-04-30T13:16:42.287Z,2.10
2023-04-30T13:21:46.326Z,1.50
2023-04-30T13:26:50.042Z,1.95
2023-04-30T13:31:57.063Z,1.90
2023-04-30T13:37:00.903Z,1.50
2023-04-30T13:42:05.594Z,1.60
2023-04-30T13:47:11.334Z,1.30
2023-04-30T13:52:15.850Z,1.73
2023-04-30T13:57:19.476Z,1.48
2023-04-30T14:02:23.623Z,1.40
2023-04-30T14:07:27.424Z,2.97
2023-04-30T14:12:32.501Z,1.70
2023-04-30T14:17:36.134Z,1.58
2023-04-30T14:22:43.097Z,1.65
2023-04-30T14:27:46.598Z,1.60
2023-04-30T14:32:52.848Z,1.63
2023-04-30T14:37:56.209Z,1.60
2023-04-30T14:42:59.524Z,1.85
2023-04-30T14:48:05.169Z,1.10
2023-04-30T14:53:09.883Z,1.25
2023-04-30T14:58:15.549Z,1.65
2023-04-30T15:03:19.349Z,1.73
2023-04-30T15:08:23.857Z,1.40
2023-04-30T15:13:28.858Z,1.38
2023-04-30T15:18:33.197Z,1.30
2023-04-30T15:23:39.697Z,1.52
2023-04-30T15:28:43.577Z,1.48
2023-04-30T15:33:46.866Z,1.48
2023-04-30T15:38:50.244Z,1.33
2023-04-30T15:43:53.922Z,1.30
2023-04-30T15:48:57.448Z,1.40
2023-04-30T15:54:02.778Z,1.45
2023-04-30T15:59:09.288Z,1.25
2023-04-30T16:04:12.893Z,1.50
2023-04-30T16:09:23.083Z,1.50
2023-04-30T16:14:26.303Z,1.38
2023-04-30T16:19:29.539Z,1.75
2023-04-30T16:24:32.830Z,1.92
2023-04-30T16:29:36.977Z,1.63
2023-04-30T16:34:44.905Z,1.77
2023-04-30T16:39:51.469Z,1.38
2023-04-30T16:44:56.181Z,1.50
2023-04-30T16:49:59.913Z,1.20
2023-04-30T16:55:05.395Z,1.60
2023-04-30T17:00:12.021Z,1.58
2023-04-30T17:05:16.486Z,1.58
2023-04-30T17:10:20.100Z,1.65
2023-04-30T17:15:24.012Z,1.20
2023-04-30T17:20:28.049Z,1.52
2023-04-30T17:25:34.009Z,1.63
2023-04-30T17:30:37.685Z,1.35
2023-04-30T17:35:42.602Z,1.35
2023-04-30T17:40:46.501Z,1.30
2023-04-30T17:45:55.179Z,1.37
2023-04-30T17:50:59.989Z,1.70
2023-04-30T17:56:06.584Z,1.60
2023-04-30T18:01:11.162Z,1.80
2023-04-30T18:06:15.416Z,2.27
2023-04-30T18:11:19.846Z,2.37
2023-04-30T18:16:24.566Z,2.23
2023-04-30T18:21:29.348Z,2.20
2023-04-30T18:26:33.144Z,2.10
2023-04-30T18:31:38.239Z,2.20
2023-04-30T18:36:44.628Z,2.70
2023-04-30T18:41:50.203Z,2.60
2023-04-30T18:46:57.225Z,2.50
2023-04-30T18:52:02.626Z,2.40
2023-04-30T18:57:12.002Z,2.43
2023-04-30T19:02:17.009Z,2.60
2023-04-30T19:07:24.039Z,2.63
2023-04-30T19:12:30.685Z,3.07
2023-04-30T19:17:35.860Z,3.50
2023-04-30T19:22:41.354Z,2.70
2023-04-30T19:27:46.339Z,3.30
2023-04-30T19:32:52.087Z,3.30
2023-04-30T19:37:58.151Z,3.63
2023-04-30T19:43:04.722Z,3.00
2023-04-30T19:48:15.750Z,3.30
2023-04-30T19:53:19.307Z,2.87
2023-04-30T19:58:25.116Z,3.40
2023-04-30T20:03:29.814Z,3.80
2023-04-30T20:08:34.088Z,4.00
2023-04-30T20:13:41.282Z,4.00
2023-04-30T20:18:49.244Z,4.80
2023-04-30T20:23:53.613Z,4.13
2023-04-30T20:28:58.028Z,3.60
2023-04-30T20:34:06.467Z,3.63
2023-04-30T20:39:12.279Z,5.40
2023-04-30T20:44:17.148Z,6.90
2023-04-30T20:49:21.026Z,6.00
2023-04-30T20:54:26.094Z,5.23
2023-04-30T20:59:31.024Z,4.83
2023-04-30T21:04:34.594Z,4.57
2023-04-30T21:09:38.708Z,3.47
2023-04-30T21:14:41.994Z,3.43
2023-04-30T21:19:45.727Z,3.93
2023-04-30T21:24:52.442Z,3.47
2023-04-30T21:29:56.375Z,3.60
2023-04-30T21:34:59.836Z,2.87
2023-04-30T21:40:04.045Z,3.10
2023-04-30T21:45:09.280Z,3.23
2023-04-30T21:50:12.802Z,3.70
2023-04-30T21:55:15.971Z,3.13
2023-04-30T22:00:19.918Z,3.10
2023-04-30T22:05:23.086Z,3.30
2023-04-30T22:10:26.313Z,3.47
2023-04-30T22:15:40.699Z,3.53
2023-04-30T22:20:51.444Z,3.20
2023-04-30T22:25:55.052Z,3.63
2023-04-30T22:31:00.051Z,3.77
2023-04-30T22:36:05.613Z,3.57
2023-04-30T22:41:09.125Z,3.40
2023-04-30T22:46:14.119Z,3.53
2023-04-30T22:51:18.067Z,8.07
2023-04-30T22:56:21.303Z,7.07
2023-04-30T23:01:24.570Z,8.10
2023-04-30T23:06:30.262Z,6.27
2023-04-30T23:11:33.614Z,5.80
2023-04-30T23:16:40.448Z,6.83
2023-04-30T23:21:43.713Z,6.40
2023-04-30T23:26:47.690Z,6.67
2023-04-30T23:31:51.449Z,7.43
2023-04-30T23:36:54.715Z,5.60
2023-04-30T23:41:57.908Z,5.17
2023-04-30T23:47:01.315Z,4.70
2023-04-30T23:52:05.388Z,6.07
2023-04-30T23:57:08.645Z,5.60
